createdAt,value
2023-05-11T00:00:04.174Z,50.83
2023-05-11T00:01:08.386Z,50.93
2023-05-11T00:02:12.520Z,50.83
2023-05-11T00:03:14.619Z,51.01
2023-05-11T00:04:17.108Z,51.43
2023-05-11T00:05:19.180Z,51.54
2023-05-11T00:06:21.209Z,51.29
2023-05-11T00:07:23.986Z,51.26
2023-05-11T00:08:25.940Z,51.19
2023-05-11T00:09:28.645Z,51.36
2023-05-11T00:10:30.747Z,51.79
2023-05-11T00:11:32.653Z,51.42
2023-05-11T00:12:34.861Z,51.53
2023-05-11T00:13:36.741Z,51.28
2023-05-11T00:14:38.633Z,51.26
2023-05-11T00:15:40.607Z,51.33
2023-05-11T00:16:42.454Z,51.32
2023-05-11T00:17:45.440Z,51.52
2023-05-11T00:18:49.046Z,51.58
2023-05-11T00:19:50.934Z,51.88
2023-05-11T00:20:52.839Z,51.49
2023-05-11T00:21:54.874Z,51.56
2023-05-11T00:22:57.023Z,51.53
2023-05-11T00:23:58.894Z,51.52
2023-05-11T00:25:01.158Z,51.43
2023-05-11T00:26:03.630Z,51.82
2023-05-11T00:27:06.068Z,51.80
2023-05-11T00:28:08.253Z,51.72
2023-05-11T00:29:10.145Z,51.64
2023-05-11T00:30:14.615Z,51.72
2023-05-11T00:31:16.510Z,51.96
2023-05-11T00:32:18.858Z,52.09
2023-05-11T00:33:21.020Z,52.58
2023-05-11T00:34:22.911Z,52.13
2023-05-11T00:35:24.962Z,52.41
2023-05-11T00:36:27.419Z,52.53
2023-05-11T00:37:29.324Z,52.54
2023-05-11T00:38:31.912Z,52.46
2023-05-11T00:39:38.678Z,52.51
2023-05-11T00:40:40.927Z,52.30
2023-05-11T00:41:42.840Z,51.95
2023-05-11T00:42:44.684Z,52.15
2023-05-11T00:43:46.963Z,52.25
2023-05-11T00:44:48.853Z,52.43
2023-05-11T00:45:52.454Z,52.64
2023-05-11T00:46:54.477Z,52.73
2023-05-11T00:47:56.733Z,52.41
2023-05-11T00:48:59.513Z,52.54
2023-05-11T00:50:01.599Z,52.93
2023-05-11T00:51:04.395Z,52.63
2023-05-11T00:52:06.758Z,53.06
2023-05-11T00:53:08.851Z,53.11
2023-05-11T00:54:15.352Z,52.91
2023-05-11T00:55:20.311Z,53.15
2023-05-11T00:56:22.321Z,53.24
2023-05-11T00:57:24.237Z,52.99
2023-05-11T00:58:26.307Z,52.61
2023-05-11T00:59:28.780Z,52.44
2023-05-11T01:00:30.727Z,51.93
2023-05-11T01:01:32.599Z,52.71
2023-05-11T01:02:35.269Z,52.82
2023-05-11T01:03:38.048Z,52.99
2023-05-11T01:04:40.372Z,53.00
2023-05-11T01:05:49.847Z,53.05
2023-05-11T01:07:23.794Z,53.17
2023-05-11T01:08:37.622Z,52.96
2023-05-11T01:09:49.704Z,52.82
2023-05-11T01:11:02.680Z,52.72
2023-05-11T01:12:35.039Z,52.51
2023-05-11T01:13:43.004Z,52.70
2023-05-11T01:15:08.938Z,52.62
2023-05-11T01:16:24.441Z,52.31
2023-05-11T01:17:40.803Z,52.67
2023-05-11T01:18:51.860Z,52.50
2023-05-11T01:20:09.409Z,52.67
2023-05-11T01:21:15.686Z,52.25
2023-05-11T01:22:34.923Z,52.29
2023-05-11T01:23:58.519Z,52.44
2023-05-11T01:25:19.095Z,52.76
2023-05-11T01:26:24.070Z,52.94
2023-05-11T01:27:59.169Z,53.11
2023-05-11T01:29:29.815Z,52.47
2023-05-11T01:30:46.515Z,53.06
2023-05-11T01:31:50.129Z,52.64
2023-05-11T01:32:56.126Z,52.56
2023-05-11T01:34:03.859Z,52.41
2023-05-11T01:35:14.675Z,52.61
2023-05-11T01:36:19.516Z,52.46
2023-05-11T01:37:23.766Z,52.71
2023-05-11T01:38:31.506Z,52.75
2023-05-11T01:39:37.489Z,53.08
2023-05-11T01:40:42.755Z,53.11
2023-05-11T01:41:51.476Z,53.13
2023-05-11T01:43:08.141Z,52.99
2023-05-11T01:44:11.930Z,53.09
2023-05-11T01:45:15.835Z,53.50
2023-05-11T01:46:19.241Z,53.21
2023-05-11T01:47:26.518Z,53.24
2023-05-11T01:48:32.034Z,53.14
2023-05-11T01:49:38.768Z,53.10
2023-05-11T01:50:42.351Z,53.61
2023-05-11T01:51:46.452Z,53.68
2023-05-11T01:52:49.405Z,53.32
2023-05-11T01:53:53.440Z,54.27
2023-05-11T01:54:57.821Z,54.00
2023-05-11T01:56:00.639Z,54.02
2023-05-11T01:57:03.583Z,53.60
2023-05-11T01:58:08.801Z,53.54
2023-05-11T01:59:12.899Z,53.69
2023-05-11T02:00:16.915Z,53.60
2023-05-11T02:01:19.960Z,53.98
2023-05-11T02:02:25.527Z,54.42
2023-05-11T02:03:29.828Z,53.98
2023-05-11T02:04:32.368Z,54.15
2023-05-11T02:06:39.805Z,53.69
2023-05-11T02:07:43.798Z,53.77
2023-05-11T02:08:48.294Z,54.25
2023-05-11T02:09:51.540Z,54.58
2023-05-11T02:10:54.925Z,54.63
2023-05-11T02:11:59.039Z,54.09
2023-05-11T02:13:03.063Z,53.98
2023-05-11T02:14:06.744Z,53.94
2023-05-11T02:15:11.058Z,54.05
2023-05-11T02:16:14.913Z,54.14
2023-05-11T02:17:21.091Z,54.29
2023-05-11T02:18:23.782Z,54.21
2023-05-11T02:19:35.645Z,54.46
2023-05-11T02:20:41.998Z,54.62
2023-05-11T02:21:45.006Z,54.39
2023-05-11T02:22:47.576Z,54.32
2023-05-11T02:23:51.408Z,54.22
2023-05-11T02:24:53.621Z,54.74
2023-05-11T02:25:57.531Z,55.27
2023-05-11T02:26:59.565Z,55.23
2023-05-11T02:28:01.914Z,54.83
2023-05-11T02:29:03.848Z,54.73
2023-05-11T02:30:08.343Z,54.99
2023-05-11T02:31:17.555Z,55.80
2023-05-11T02:32:22.785Z,55.86
2023-05-11T02:33:33.030Z,55.45
2023-05-11T02:34:42.701Z,55.34
2023-05-11T02:35:47.089Z,55.42
2023-05-11T02:36:53.119Z,55.51
2023-05-11T02:37:59.312Z,55.37
2023-05-11T02:39:08.462Z,55.41
2023-05-11T02:40:18.752Z,55.41
2023-05-11T02:41:26.996Z,55.22
2023-05-11T02:42:36.415Z,55.08
2023-05-11T02:43:46.862Z,55.52
2023-05-11T02:45:05.012Z,55.85
2023-05-11T02:46:14.433Z,55.25
2023-05-11T02:47:18.866Z,55.20
2023-05-11T02:48:27.482Z,55.47
2023-05-11T02:49:32.444Z,55.69
2023-05-11T02:50:39.374Z,55.78
2023-05-11T02:51:44.891Z,55.81
2023-05-11T02:52:49.492Z,55.57
2023-05-11T02:53:52.780Z,55.40
2023-05-11T02:54:55.054Z,55.06
2023-05-11T02:55:58.238Z,54.79
2023-05-11T02:57:00.381Z,54.55
2023-05-11T02:58:03.487Z,54.55
2023-05-11T02:59:05.893Z,54.92
2023-05-11T03:00:08.812Z,54.64
2023-05-11T03:01:13.323Z,55.13
2023-05-11T03:02:15.777Z,55.11
2023-05-11T03:03:18.352Z,55.32
2023-05-11T03:04:20.606Z,54.92
2023-05-11T03:05:22.697Z,54.29
2023-05-11T03:06:25.815Z,54.50
2023-05-11T03:07:28.258Z,54.37
2023-05-11T03:08:30.441Z,54.71
2023-05-11T03:09:32.816Z,54.86
2023-05-11T03:10:35.277Z,54.94
2023-05-11T03:11:37.766Z,54.76
2023-05-11T03:12:39.711Z,54.46
2023-05-11T03:13:44.387Z,54.00
2023-05-11T03:14:47.901Z,54.13
2023-05-11T03:15:51.298Z,54.34
2023-05-11T03:16:55.133Z,54.04
2023-05-11T03:17:58.913Z,53.99
2023-05-11T03:19:02.678Z,54.72
2023-05-11T03:20:06.268Z,54.86
2023-05-11T03:21:08.622Z,54.44
2023-05-11T03:22:11.787Z,54.57
2023-05-11T03:23:16.920Z,54.86
2023-05-11T03:24:19.811Z,54.80
2023-05-11T03:25:23.634Z,54.40
2023-05-11T03:26:28.630Z,54.71
2023-05-11T03:27:32.268Z,54.83
2023-05-11T03:28:36.854Z,54.81
2023-05-11T03:29:42.945Z,54.81
2023-05-11T03:30:46.683Z,54.83
2023-05-11T03:31:51.096Z,54.78
2023-05-11T03:32:54.035Z,54.59
2023-05-11T03:33:57.598Z,54.58
2023-05-11T03:35:00.262Z,54.35
2023-05-11T03:36:04.623Z,54.60
2023-05-11T03:37:07.937Z,54.60
2023-05-11T03:38:12.859Z,54.47
2023-05-11T03:39:17.233Z,54.50
2023-05-11T03:40:21.704Z,54.63
2023-05-11T03:41:26.862Z,54.86
2023-05-11T03:42:30.906Z,54.46
2023-05-11T03:43:36.207Z,54.69
2023-05-11T03:44:39.859Z,54.16
2023-05-11T03:45:43.551Z,54.13
2023-05-11T03:46:47.906Z,54.44
2023-05-11T03:47:52.230Z,54.56
2023-05-11T03:48:54.996Z,54.05
2023-05-11T03:49:58.756Z,54.13
2023-05-11T03:51:01.128Z,54.49
2023-05-11T03:52:04.777Z,54.60
2023-05-11T03:53:06.898Z,54.69
2023-05-11T03:54:09.131Z,54.33
2023-05-11T03:55:11.833Z,54.40
2023-05-11T03:56:14.076Z,54.85
2023-05-11T03:57:16.014Z,54.90
2023-05-11T03:58:17.889Z,54.91
2023-05-11T03:59:20.167Z,54.30
2023-05-11T04:00:22.741Z,54.04
2023-05-11T04:01:26.331Z,54.29
2023-05-11T04:02:28.293Z,54.21
2023-05-11T04:03:31.033Z,53.79
2023-05-11T04:04:33.068Z,53.89
2023-05-11T04:05:35.698Z,54.06
2023-05-11T04:06:38.126Z,54.31
2023-05-11T04:07:41.196Z,54.06
2023-05-11T04:08:43.413Z,53.24
2023-05-11T04:09:45.556Z,53.03
2023-05-11T04:10:47.436Z,52.99
2023-05-11T04:11:50.050Z,52.61
2023-05-11T04:12:52.928Z,52.65
2023-05-11T04:13:54.803Z,52.95
2023-05-11T04:14:56.790Z,52.96
2023-05-11T04:15:58.692Z,52.52
2023-05-11T04:17:01.422Z,52.35
2023-05-11T04:18:03.286Z,51.60
2023-05-11T04:19:07.365Z,51.89
2023-05-11T04:20:10.197Z,52.37
2023-05-11T04:21:12.105Z,51.83
2023-05-11T04:22:14.298Z,52.46
2023-05-11T04:23:16.184Z,51.73
2023-05-11T04:24:18.049Z,51.46
2023-05-11T04:25:20.712Z,51.68
2023-05-11T04:26:22.658Z,52.00
2023-05-11T04:27:24.789Z,52.08
2023-05-11T04:28:28.153Z,51.72
2023-05-11T04:29:30.283Z,51.65
2023-05-11T04:30:32.304Z,52.45
2023-05-11T04:31:34.254Z,51.77
2023-05-11T04:32:37.205Z,52.15
2023-05-11T04:33:39.091Z,52.44
2023-05-11T04:34:41.251Z,51.88
2023-05-11T04:35:43.563Z,52.14
2023-05-11T04:36:48.510Z,51.92
2023-05-11T04:37:51.039Z,51.73
2023-05-11T04:38:53.504Z,51.66
2023-05-11T04:39:56.884Z,52.29
2023-05-11T04:41:06.313Z,52.69
2023-05-11T04:42:08.761Z,52.02
2023-05-11T04:43:10.893Z,52.13
2023-05-11T04:44:12.772Z,52.05
2023-05-11T04:45:16.906Z,52.48
2023-05-11T04:46:18.874Z,52.33
2023-05-11T04:47:20.801Z,52.24
2023-05-11T04:48:23.593Z,52.33
2023-05-11T04:49:26.368Z,52.25
2023-05-11T04:50:28.327Z,52.07
2023-05-11T04:51:30.489Z,52.22
2023-05-11T04:52:32.472Z,51.61
2023-05-11T04:53:34.841Z,51.29
2023-05-11T04:54:39.172Z,52.10
2023-05-11T04:55:41.171Z,52.20
2023-05-11T04:56:43.450Z,52.22
2023-05-11T04:57:45.372Z,51.74
2023-05-11T04:58:47.533Z,52.31
2023-05-11T04:59:49.448Z,51.87
2023-05-11T05:00:51.606Z,52.07
2023-05-11T05:01:54.025Z,51.96
2023-05-11T05:02:55.946Z,51.53
2023-05-11T05:03:58.218Z,52.10
2023-05-11T05:05:00.957Z,52.42
2023-05-11T05:06:02.829Z,52.58
2023-05-11T05:07:05.026Z,52.46
2023-05-11T05:08:07.499Z,52.26
2023-05-11T05:09:10.230Z,52.26
2023-05-11T05:10:12.973Z,52.40
2023-05-11T05:11:15.567Z,52.12
2023-05-11T05:12:17.977Z,51.88
2023-05-11T05:13:19.818Z,52.18
2023-05-11T05:14:21.998Z,52.23
2023-05-11T05:15:23.896Z,52.23
2023-05-11T05:16:25.767Z,52.44
2023-05-11T05:17:27.792Z,52.23
2023-05-11T05:18:30.049Z,52.05
2023-05-11T05:19:32.224Z,51.72
2023-05-11T05:20:35.234Z,52.18
2023-05-11T05:21:37.823Z,51.96
2023-05-11T05:22:39.693Z,51.99
2023-05-11T05:23:41.616Z,52.37
2023-05-11T05:24:43.733Z,52.22
2023-05-11T05:25:45.782Z,52.38
2023-05-11T05:26:47.660Z,52.50
2023-05-11T05:27:49.656Z,52.59
2023-05-11T05:28:51.885Z,53.08
2023-05-11T05:29:54.524Z,52.73
2023-05-11T05:30:58.476Z,52.43
2023-05-11T05:32:01.958Z,51.67
2023-05-11T05:33:04.505Z,52.55
2023-05-11T05:34:07.760Z,52.89
2023-05-11T05:35:10.712Z,52.83
2023-05-11T05:36:13.034Z,52.24
2023-05-11T05:37:14.996Z,51.65
2023-05-11T05:38:16.980Z,51.74
2023-05-11T05:39:19.342Z,51.39
2023-05-11T05:40:21.681Z,52.01
2023-05-11T05:41:25.787Z,52.01
2023-05-11T05:42:27.663Z,52.98
2023-05-11T05:43:29.604Z,52.13
2023-05-11T05:44:32.069Z,52.45
2023-05-11T05:45:34.265Z,52.80
2023-05-11T05:46:36.473Z,52.33
2023-05-11T05:47:38.352Z,52.78
2023-05-11T05:48:40.477Z,52.28
2023-05-11T05:49:42.954Z,52.30
2023-05-11T05:50:45.130Z,52.10
2023-05-11T05:51:47.532Z,52.54
2023-05-11T05:52:49.394Z,52.34
2023-05-11T05:53:51.283Z,51.99
2023-05-11T05:54:53.197Z,51.80
2023-05-11T05:55:55.438Z,51.77
2023-05-11T05:56:57.274Z,51.83
2023-05-11T05:57:59.441Z,52.00
2023-05-11T05:59:01.560Z,51.82
2023-05-11T06:00:04.000Z,53.38
2023-05-11T06:01:14.663Z,52.57
2023-05-11T06:02:16.992Z,51.69
2023-05-11T06:03:19.199Z,52.64
2023-05-11T06:04:21.275Z,51.75
2023-05-11T06:05:23.522Z,51.80
2023-05-11T06:06:27.231Z,52.13
2023-05-11T06:07:29.465Z,52.26
2023-05-11T06:08:31.309Z,51.57
2023-05-11T06:09:33.127Z,51.67
2023-05-11T06:10:34.994Z,51.69
2023-05-11T06:11:38.236Z,51.73
2023-05-11T06:12:40.470Z,51.52
2023-05-11T06:13:42.366Z,51.74
2023-05-11T06:14:44.608Z,51.38
2023-05-11T06:15:46.612Z,51.52
2023-05-11T06:16:49.274Z,50.85
2023-05-11T06:17:51.508Z,51.17
2023-05-11T06:18:53.581Z,51.44
2023-05-11T06:19:55.903Z,52.05
2023-05-11T06:20:59.514Z,52.42
2023-05-11T06:22:02.282Z,52.27
2023-05-11T06:23:08.175Z,52.49
2023-05-11T06:24:11.951Z,52.43
2023-05-11T06:25:16.078Z,52.33
2023-05-11T06:26:18.680Z,52.45
2023-05-11T06:27:20.945Z,52.54
2023-05-11T06:28:24.521Z,52.78
2023-05-11T06:29:27.559Z,52.53
2023-05-11T06:30:29.777Z,52.83
2023-05-11T06:31:31.853Z,52.41
2023-05-11T06:32:34.438Z,52.91
2023-05-11T06:33:37.238Z,52.38
2023-05-11T06:34:40.119Z,52.40
2023-05-11T06:35:42.635Z,52.97
2023-05-11T06:36:45.892Z,52.77
2023-05-11T06:37:47.832Z,52.87
2023-05-11T06:38:50.444Z,53.83
2023-05-11T06:39:52.438Z,54.29
2023-05-11T06:40:54.317Z,52.48
2023-05-11T06:41:58.737Z,52.27
2023-05-11T06:43:03.351Z,52.64
2023-05-11T06:44:13.047Z,52.43
2023-05-11T06:45:17.720Z,51.89
2023-05-11T06:46:19.761Z,52.31
2023-05-11T06:47:21.727Z,51.69
2023-05-11T06:48:24.618Z,51.29
2023-05-11T06:49:28.437Z,51.09
2023-05-11T06:50:30.846Z,51.21
2023-05-11T06:51:32.890Z,50.82
2023-05-11T06:52:34.747Z,51.68
2023-05-11T06:53:36.980Z,51.54
2023-05-11T06:54:39.240Z,51.80
2023-05-11T06:55:41.500Z,51.85
2023-05-11T06:56:43.546Z,50.80
2023-05-11T06:57:47.986Z,50.26
2023-05-11T06:58:50.156Z,50.03
2023-05-11T06:59:52.353Z,50.49
2023-05-11T07:00:54.259Z,50.39
2023-05-11T07:01:56.252Z,50.09
2023-05-11T07:02:58.148Z,50.03
2023-05-11T07:04:00.450Z,49.48
2023-05-11T07:05:02.686Z,49.48
2023-05-11T07:06:04.735Z,50.28
2023-05-11T07:07:06.562Z,49.43
2023-05-11T07:08:08.473Z,50.23
2023-05-11T07:09:10.346Z,49.78
2023-05-11T07:10:12.491Z,49.98
2023-05-11T07:11:15.470Z,49.48
2023-05-11T07:12:17.399Z,49.80
2023-05-11T07:13:19.451Z,49.30
2023-05-11T07:14:21.369Z,49.01
2023-05-11T07:15:23.520Z,51.64
2023-05-11T07:16:25.336Z,51.60
2023-05-11T07:17:28.629Z,48.68
2023-05-11T07:18:30.660Z,48.75
2023-05-11T07:19:32.974Z,49.09
2023-05-11T07:20:39.976Z,48.34
2023-05-11T07:21:41.881Z,48.47
2023-05-11T07:22:43.706Z,48.70
2023-05-11T07:23:45.616Z,48.22
2023-05-11T07:24:47.497Z,47.90
2023-05-11T07:25:49.691Z,47.12
2023-05-11T07:26:51.962Z,46.94
2023-05-11T07:27:53.900Z,46.27
2023-05-11T07:28:55.787Z,45.87
2023-05-11T07:29:57.634Z,46.18
2023-05-11T07:30:59.863Z,46.56
2023-05-11T07:32:01.861Z,46.69
2023-05-11T07:33:04.111Z,46.08
2023-05-11T07:34:06.202Z,45.10
2023-05-11T07:35:08.369Z,45.07
2023-05-11T07:36:10.642Z,45.51
2023-05-11T07:37:12.684Z,43.88
2023-05-11T07:38:14.529Z,44.22
2023-05-11T07:39:17.105Z,44.86
2023-05-11T07:40:19.473Z,44.83
2023-05-11T07:41:26.067Z,43.52
2023-05-11T07:42:28.045Z,43.06
2023-05-11T07:43:30.386Z,43.60
2023-05-11T07:44:32.227Z,43.35
2023-05-11T07:45:34.069Z,42.93
2023-05-11T07:46:36.290Z,42.77
2023-05-11T07:47:38.240Z,43.03
2023-05-11T07:48:40.188Z,42.40
2023-05-11T07:49:44.005Z,43.33
2023-05-11T07:50:46.418Z,43.38
2023-05-11T07:51:48.671Z,41.95
2023-05-11T07:52:50.531Z,45.17
2023-05-11T07:53:52.436Z,41.90
2023-05-11T07:54:54.370Z,41.55
2023-05-11T07:55:56.396Z,41.95
2023-05-11T07:56:58.577Z,41.58
2023-05-11T07:58:00.793Z,39.99
2023-05-11T07:59:02.757Z,41.11
2023-05-11T08:00:06.014Z,40.68
2023-05-11T08:01:13.506Z,40.96
2023-05-11T08:02:15.762Z,39.72
2023-05-11T08:03:17.684Z,39.33
2023-05-11T08:04:19.539Z,39.55
2023-05-11T08:05:22.037Z,39.75
2023-05-11T08:06:24.527Z,40.54
2023-05-11T08:07:26.840Z,40.61
2023-05-11T08:08:30.190Z,39.70
2023-05-11T08:09:32.384Z,40.59
2023-05-11T08:10:36.255Z,40.33
2023-05-11T08:11:38.187Z,39.89
2023-05-11T08:12:40.386Z,39.79
2023-05-11T08:13:42.301Z,39.80
2023-05-11T08:14:44.190Z,39.30
2023-05-11T08:15:46.038Z,39.50
2023-05-11T08:16:48.517Z,39.47
2023-05-11T08:17:51.110Z,39.79
2023-05-11T08:18:53.035Z,40.23
2023-05-11T08:19:54.845Z,39.39
2023-05-11T08:20:57.084Z,39.34
2023-05-11T08:21:59.138Z,40.00
2023-05-11T08:23:01.305Z,39.73
2023-05-11T08:24:03.337Z,40.05
2023-05-11T08:25:05.689Z,40.67
2023-05-11T08:26:07.704Z,40.33
2023-05-11T08:27:09.525Z,40.37
2023-05-11T08:28:11.622Z,40.95
2023-05-11T08:29:13.491Z,40.80
2023-05-11T08:30:16.090Z,42.10
2023-05-11T08:31:18.579Z,41.45
2023-05-11T08:32:20.550Z,42.24
2023-05-11T08:34:31.355Z,41.03
2023-05-11T08:35:33.283Z,39.92
2023-05-11T08:36:35.981Z,40.59
2023-05-11T08:37:37.884Z,41.31
2023-05-11T08:38:40.376Z,41.67
2023-05-11T08:40:51.548Z,40.22
2023-05-11T08:41:53.650Z,40.60
2023-05-11T08:42:57.255Z,41.88
2023-05-11T08:43:59.801Z,40.38
2023-05-11T08:45:02.268Z,39.45
2023-05-11T08:46:07.444Z,38.80
2023-05-11T08:47:22.841Z,38.64
2023-05-11T08:48:26.173Z,39.56
2023-05-11T08:49:28.411Z,39.84
2023-05-11T08:50:30.449Z,39.95
2023-05-11T08:51:33.323Z,39.88
2023-05-11T08:52:35.185Z,39.97
2023-05-11T08:53:37.131Z,39.32
2023-05-11T08:54:39.425Z,39.66
2023-05-11T08:55:43.948Z,39.98
2023-05-11T08:56:47.765Z,37.99
2023-05-11T08:57:51.644Z,37.90
2023-05-11T08:58:56.746Z,38.29
2023-05-11T09:00:02.170Z,38.33
2023-05-11T09:01:06.373Z,38.48
2023-05-11T09:02:14.409Z,38.45
2023-05-11T09:03:18.161Z,38.18
2023-05-11T09:04:21.850Z,38.54
2023-05-11T09:05:25.842Z,38.26
2023-05-11T09:06:28.389Z,38.77
2023-05-11T09:07:31.559Z,38.42
2023-05-11T09:08:36.518Z,37.49
2023-05-11T09:09:39.609Z,37.04
2023-05-11T09:10:43.615Z,37.63
2023-05-11T09:11:46.294Z,38.04
2023-05-11T09:12:48.208Z,38.28
2023-05-11T09:13:50.910Z,37.36
2023-05-11T09:14:53.008Z,37.47
2023-05-11T09:15:55.338Z,38.36
2023-05-11T09:16:58.866Z,38.86
2023-05-11T09:18:00.878Z,38.00
2023-05-11T09:19:03.441Z,36.79
2023-05-11T09:20:09.439Z,36.84
2023-05-11T09:21:12.900Z,37.01
2023-05-11T09:22:14.780Z,36.44
2023-05-11T09:23:25.397Z,36.70
2023-05-11T09:24:27.964Z,37.49
2023-05-11T09:25:34.869Z,37.95
2023-05-11T09:26:37.111Z,37.08
2023-05-11T09:27:46.354Z,37.51
2023-05-11T09:29:02.420Z,36.15
2023-05-11T09:30:21.992Z,36.62
2023-05-11T09:31:39.511Z,36.37
2023-05-11T09:32:57.753Z,35.21
2023-05-11T09:34:20.214Z,35.56
2023-05-11T09:35:25.070Z,35.86
2023-05-11T09:36:26.995Z,35.94
2023-05-11T09:37:28.889Z,34.95
2023-05-11T09:38:32.359Z,35.20
2023-05-11T09:39:43.934Z,35.34
2023-05-11T09:40:58.031Z,35.15
2023-05-11T09:42:21.077Z,35.14
2023-05-11T09:43:30.322Z,34.01
2023-05-11T09:44:32.473Z,33.79
2023-05-11T09:45:45.081Z,34.99
2023-05-11T09:46:47.575Z,35.40
2023-05-11T09:47:49.587Z,36.11
2023-05-11T09:49:00.073Z,35.01
2023-05-11T09:50:16.504Z,34.66
2023-05-11T09:51:30.749Z,36.97
2023-05-11T09:52:32.732Z,34.32
2023-05-11T09:53:44.069Z,33.40
2023-05-11T09:54:48.402Z,32.99
2023-05-11T09:55:56.020Z,33.71
2023-05-11T09:57:00.415Z,33.65
2023-05-11T09:58:02.632Z,34.55
2023-05-11T09:59:04.723Z,34.51
2023-05-11T10:00:14.571Z,33.83
2023-05-11T10:01:18.812Z,35.46
2023-05-11T10:02:26.477Z,35.57
2023-05-11T10:03:29.592Z,35.76
2023-05-11T10:04:31.662Z,35.46
2023-05-11T10:05:35.766Z,35.54
2023-05-11T10:06:46.190Z,35.62
2023-05-11T10:07:58.083Z,35.49
2023-05-11T10:09:09.331Z,35.27
2023-05-11T10:10:14.152Z,35.22
2023-05-11T10:11:16.117Z,33.31
2023-05-11T10:12:21.925Z,33.23
2023-05-11T10:13:27.157Z,33.69
2023-05-11T10:14:31.216Z,33.26
2023-05-11T10:15:35.336Z,33.22
2023-05-11T10:16:37.834Z,33.70
2023-05-11T10:17:44.630Z,34.32
2023-05-11T10:18:46.950Z,34.53
2023-05-11T10:19:49.466Z,33.65
2023-05-11T10:20:52.275Z,32.80
2023-05-11T10:21:56.605Z,32.07
2023-05-11T10:22:59.106Z,31.64
2023-05-11T10:24:02.376Z,31.54
2023-05-11T10:25:06.487Z,31.43
2023-05-11T10:26:10.706Z,31.51
2023-05-11T10:27:13.244Z,30.90
2023-05-11T10:28:16.256Z,30.64
2023-05-11T10:29:19.541Z,31.32
2023-05-11T10:30:22.283Z,31.95
2023-05-11T10:31:24.738Z,32.29
2023-05-11T10:32:27.832Z,32.61
2023-05-11T10:33:30.445Z,32.28
2023-05-11T10:34:33.877Z,31.93
2023-05-11T10:35:38.229Z,31.77
2023-05-11T10:36:40.186Z,32.48
2023-05-11T10:37:46.469Z,33.40
2023-05-11T10:38:48.671Z,32.67
2023-05-11T10:39:51.077Z,33.04
2023-05-11T10:42:17.329Z,31.61
2023-05-11T10:44:07.365Z,32.21
2023-05-11T10:45:36.858Z,32.55
2023-05-11T10:46:58.913Z,32.37
2023-05-11T10:48:37.143Z,32.06
2023-05-11T10:50:02.599Z,31.04
2023-05-11T10:51:33.405Z,31.89
2023-05-11T10:53:11.942Z,32.90
2023-05-11T10:54:16.472Z,32.43
2023-05-11T10:55:46.864Z,32.60
2023-05-11T10:57:10.066Z,31.33
2023-05-11T10:58:49.509Z,31.93
2023-05-11T11:00:31.123Z,30.33
2023-05-11T11:01:41.792Z,31.07
2023-05-11T11:02:45.479Z,31.73
2023-05-11T11:04:02.935Z,30.99
2023-05-11T11:05:09.079Z,31.07
2023-05-11T11:06:28.552Z,30.72
2023-05-11T11:07:30.590Z,30.76
2023-05-11T11:08:58.751Z,31.00
2023-05-11T11:10:07.283Z,30.86
2023-05-11T11:11:28.576Z,31.08
2023-05-11T11:12:31.259Z,31.31
2023-05-11T11:13:57.056Z,31.51
2023-05-11T11:15:00.414Z,31.25
2023-05-11T11:16:02.218Z,30.88
2023-05-11T11:17:16.380Z,31.19
2023-05-11T11:18:23.271Z,31.44
2023-05-11T11:19:31.543Z,31.14
2023-05-11T11:20:48.750Z,31.12
2023-05-11T11:21:50.704Z,31.47
2023-05-11T11:22:52.619Z,30.61
2023-05-11T11:23:54.482Z,30.34
2023-05-11T11:24:56.635Z,30.32
2023-05-11T11:25:58.681Z,30.89
2023-05-11T11:27:00.577Z,30.45
2023-05-11T11:28:02.463Z,30.71
2023-05-11T11:29:10.966Z,30.58
2023-05-11T11:30:25.379Z,30.83
2023-05-11T11:31:32.904Z,31.18
2023-05-11T11:32:35.116Z,31.82
2023-05-11T11:33:37.363Z,32.02
2023-05-11T11:34:39.292Z,30.74
2023-05-11T11:35:41.770Z,31.87
2023-05-11T11:36:55.940Z,31.18
2023-05-11T11:38:02.547Z,31.32
2023-05-11T11:39:05.426Z,31.94
2023-05-11T11:40:14.910Z,31.99
2023-05-11T11:41:29.407Z,32.66
2023-05-11T11:42:32.111Z,33.08
2023-05-11T11:43:47.289Z,33.76
2023-05-11T11:44:49.254Z,33.08
2023-05-11T11:45:59.553Z,32.45
2023-05-11T11:47:23.617Z,31.28
2023-05-11T11:48:35.355Z,30.85
2023-05-11T11:49:38.664Z,32.14
2023-05-11T11:50:45.642Z,32.24
2023-05-11T11:51:47.748Z,31.24
2023-05-11T11:52:49.961Z,32.04
2023-05-11T11:53:53.036Z,32.43
2023-05-11T11:54:56.542Z,32.66
2023-05-11T11:55:58.438Z,33.18
2023-05-11T11:57:00.288Z,32.78
2023-05-11T11:58:02.436Z,33.01
2023-05-11T11:59:05.369Z,31.97
2023-05-11T12:00:11.691Z,32.28
2023-05-11T12:01:19.985Z,32.65
2023-05-11T12:02:23.303Z,32.21
2023-05-11T12:03:25.768Z,32.14
2023-05-11T12:04:51.817Z,32.26
2023-05-11T12:06:01.302Z,32.72
2023-05-11T12:07:07.751Z,32.61
2023-05-11T12:08:13.259Z,32.29
2023-05-11T12:09:19.302Z,32.76
2023-05-11T12:10:23.007Z,32.86
2023-05-11T12:11:26.335Z,33.11
2023-05-11T12:12:28.924Z,33.24
2023-05-11T12:13:31.818Z,33.57
2023-05-11T12:14:35.277Z,33.00
2023-05-11T12:15:37.365Z,33.50
2023-05-11T12:16:39.331Z,32.90
2023-05-11T12:17:41.580Z,33.45
2023-05-11T12:18:55.443Z,34.65
2023-05-11T12:20:15.193Z,33.94
2023-05-11T12:21:21.313Z,33.81
2023-05-11T12:22:25.090Z,34.01
2023-05-11T12:23:27.459Z,33.49
2023-05-11T12:24:29.572Z,33.72
2023-05-11T12:25:31.481Z,33.74
2023-05-11T12:26:34.465Z,33.22
2023-05-11T12:27:36.483Z,33.55
2023-05-11T12:28:38.667Z,32.95
2023-05-11T12:29:41.435Z,32.50
2023-05-11T12:30:56.671Z,32.16
2023-05-11T12:31:59.957Z,32.04
2023-05-11T12:33:04.523Z,32.36
2023-05-11T12:34:07.258Z,32.52
2023-05-11T12:35:09.191Z,32.29
2023-05-11T12:36:15.829Z,32.31
2023-05-11T12:37:18.000Z,32.98
2023-05-11T12:38:20.008Z,32.65
2023-05-11T12:39:27.744Z,33.45
2023-05-11T12:40:31.167Z,33.47
2023-05-11T12:41:33.232Z,33.99
2023-05-11T12:42:35.790Z,33.64
2023-05-11T12:43:38.245Z,33.86
2023-05-11T12:44:40.794Z,33.66
2023-05-11T12:45:42.888Z,33.72
2023-05-11T12:46:47.347Z,32.91
2023-05-11T12:47:51.773Z,33.65
2023-05-11T12:48:53.758Z,33.12
2023-05-11T12:49:56.172Z,32.38
2023-05-11T12:50:58.107Z,32.38
2023-05-11T12:52:00.492Z,32.76
2023-05-11T12:53:23.553Z,33.03
2023-05-11T12:54:43.488Z,32.78
2023-05-11T12:55:57.741Z,32.73
2023-05-11T12:57:01.517Z,31.97
2023-05-11T12:58:18.797Z,31.38
2023-05-11T12:59:33.257Z,31.76
2023-05-11T13:00:35.780Z,31.45
2023-05-11T13:01:38.105Z,31.22
2023-05-11T13:02:54.140Z,31.01
2023-05-11T13:03:56.372Z,30.60
2023-05-11T13:04:58.410Z,31.48
2023-05-11T13:06:09.771Z,30.75
2023-05-11T13:07:13.228Z,31.13
2023-05-11T13:08:16.699Z,31.33
2023-05-11T13:09:25.640Z,30.84
2023-05-11T13:11:29.339Z,30.34
2023-05-11T13:12:32.686Z,30.79
2023-05-11T13:13:34.566Z,31.26
2023-05-11T13:14:36.593Z,30.34
2023-05-11T13:15:51.816Z,30.56
2023-05-11T13:16:54.127Z,30.68
2023-05-11T13:17:58.619Z,30.16
2023-05-11T13:19:03.329Z,30.85
2023-05-11T13:20:37.795Z,30.14
2023-05-11T13:21:39.668Z,30.39
2023-05-11T13:22:41.686Z,30.58
2023-05-11T13:23:49.439Z,30.91
2023-05-11T13:25:01.823Z,30.39
2023-05-11T13:26:03.688Z,30.94
2023-05-11T13:27:05.694Z,31.13
2023-05-11T13:28:07.584Z,30.37
2023-05-11T13:29:11.415Z,30.37
2023-05-11T13:30:13.946Z,30.38
2023-05-11T13:31:15.874Z,30.00
2023-05-11T13:32:17.728Z,29.68
2023-05-11T13:33:19.910Z,29.95
2023-05-11T13:34:22.325Z,29.59
2023-05-11T13:35:24.195Z,29.58
2023-05-11T13:36:26.061Z,29.44
2023-05-11T13:37:28.121Z,29.92
2023-05-11T13:38:29.957Z,29.06
2023-05-11T13:39:32.139Z,29.24
2023-05-11T13:40:35.041Z,29.72
2023-05-11T13:41:36.946Z,29.84
2023-05-11T13:42:38.963Z,30.26
2023-05-11T13:43:40.786Z,29.46
2023-05-11T13:44:42.941Z,29.61
2023-05-11T13:45:44.865Z,29.27
2023-05-11T13:46:46.695Z,29.13
2023-05-11T13:47:48.617Z,29.47
2023-05-11T13:48:50.508Z,29.10
2023-05-11T13:49:54.649Z,29.36
2023-05-11T13:50:56.501Z,29.82
2023-05-11T13:51:59.965Z,29.54
2023-05-11T13:53:01.943Z,29.90
2023-05-11T13:54:04.181Z,29.66
2023-05-11T13:55:06.893Z,29.44
2023-05-11T13:56:08.833Z,29.85
2023-05-11T13:57:10.823Z,28.96
2023-05-11T13:58:12.808Z,28.75
2023-05-11T13:59:14.745Z,28.64
2023-05-11T14:00:17.657Z,29.10